Aeroporto :
LOGIN :

Iscrizione | Disclaimer

   EN    FR    IT 

 










Sommario :    VFR   VFR Marginale   IFR   IFR Intensivo   IFR Molto Intensivo
Visibilità : 
Base nubi : 
>= 8 km
>= 3000ft
5 / 8 km
1000 / 3000 ft
1500m / 5 km
500 / 1000 ft
800 / 1500m
200 / 500 ft
< 800m
< 200 ft
Simboli :   Temporali  Nebbia  Neve Forte  Precipitazioni Forti  Vento > 20 kt
SIGMETs :   Varie  Temporali  Ghiacco  Turbolenza  Onda orograficha  Ceneri Vulcaniche






- Altitudine del aeroporto : 614 ft
- Codice IATA : CRL


EBCI - Charleroi

ULTIMO METAR :
  • 151250Z 21014KT 9999 FEW024 08/02 Q1003 NOSIG

METARs OBSOLETI :
  • 151220Z 23017KT 9999 FEW024 08/02 Q1003 NOSIG
  • 151150Z 23018KT CAVOK 08/02 Q1002 NOSIG
  • 151120Z 23017KT CAVOK 08/02 Q1002 NOSIG
  • 151050Z 22016KT CAVOK 07/02 Q1002 NOSIG
  • 151020Z 22014KT 9999 FEW025 07/03 Q1002 NOSIG

TAF TAF EBCI
Valido dal 15 a 12 ore il 16 a 18 ore UTC


151110Z 1512/1618 22015G25KT 9999 FEW025
BECMG 1516/1518 20009KT
BECMG 1600/1602 SCT007 BKN011
PROB40
TEMPO 1602/1612 SCT004 BKN006
BECMG 1612/1614 3000 -RA -RADZ SCT004 BKN006
PROB40
TEMPO 1614/1617 1600 RA RADZ SCT002 BKN003



MetMap, La meteo Aeronautica in un colpo d'occhio ! - Copyright ORBIFLY Dicembre 2007 - Disclaimer

ORBIFLY MET'MAP TEAM :

Programmazione e sviluppo : Alexandra Zaïnal
Concezione : Baudouin d'Aumeries
Aiuto per la programmazione : Marc-Olivier Méhu
Supporto tecnico e logistico : Manuel Goepfert
Aiuto per la traduzione : Arnaldo La Scala

Contatto : metmap@orbifly.com




FONTI E CREDITI :

   NOAA